Time;durP1;ratioP1;P1;durP2;ratioP2;P2;SDS_P1;SDS_P2;PMS_P1;PMS_P2;Temp;Humidity;BMP_temperature;BMP_pressure;BME280_temperature;BME280_humidity;BME280_pressure;Samples;Min_cycle;Max_cycle;Signal;HPM_P1;HPM_P2
2023/08/24 00:01:18;;;;;;;2.87;2.40;;;17.10;99.90;16.40;100576;;;;572755;246;24256;-79
2023/08/24 00:03:48;;;;;;;5.47;2.97;;;17.00;99.90;16.40;100580;;;;573231;246;24114;-80
2023/08/24 00:06:17;;;;;;;4.70;2.17;;;17.00;99.90;16.40;100581;;;;573227;247;24110;-80
2023/08/24 00:08:45;;;;;;;3.97;2.50;;;16.90;99.90;16.30;100589;;;;573481;247;24111;-80
2023/08/24 00:11:14;;;;;;;3.90;2.47;;;16.90;99.90;16.30;100581;;;;573983;242;24071;-77
2023/08/24 00:13:51;;;;;;;4.33;2.53;;;16.90;99.90;16.30;100576;;;;574212;247;24120;-77
2023/08/24 00:16:22;;;;;;;4.47;2.40;;;16.90;99.90;16.30;100580;;;;574854;246;24153;-77
2023/08/24 00:18:47;;;;;;;5.03;2.40;;;16.80;99.90;16.30;100569;;;;584238;245;24170;-77
2023/08/24 00:21:19;;;;;;;2.50;2.30;;;16.90;99.90;16.30;100575;;;;574471;246;24169;-78
2023/08/24 00:23:45;;;;;;;4.95;2.83;;;16.90;99.90;16.30;100568;;;;568623;246;35343;-78
2023/08/24 00:26:13;;;;;;;4.73;2.77;;;16.90;99.90;16.30;100574;;;;573428;246;24072;-79
2023/08/24 00:28:41;;;;;;;4.17;2.80;;;16.90;99.90;16.30;100563;;;;573204;246;24075;-80
2023/08/24 00:31:09;;;;;;;7.77;2.50;;;16.90;99.90;16.30;100568;;;;573431;246;24119;-79
2023/08/24 00:33:37;;;;;;;7.10;2.37;;;16.90;99.90;16.30;100570;;;;573253;247;24098;-81
2023/08/24 00:36:06;;;;;;;2.60;2.10;;;16.90;99.90;16.30;100568;;;;573468;247;24112;-79
2023/08/24 00:38:33;;;;;;;2.83;2.03;;;16.90;99.90;16.30;100556;;;;573076;246;24104;-79
2023/08/24 00:41:02;;;;;;;4.50;2.30;;;16.90;99.90;16.30;100563;;;;573007;247;24085;-78
2023/08/24 00:43:29;;;;;;;1.93;1.83;;;16.90;99.90;16.30;100556;;;;573131;247;24179;-79
2023/08/24 00:45:57;;;;;;;4.13;2.10;;;16.90;99.90;16.30;100555;;;;573095;247;24081;-79
2023/08/24 00:48:29;;;;;;;2.27;2.03;;;16.90;99.90;16.40;100562;;;;573149;247;24194;-77
2023/08/24 00:50:53;;;;;;;2.10;2.00;;;16.90;99.90;16.40;100555;;;;572671;247;24117;-77
2023/08/24 00:53:21;;;;;;;2.20;2.00;;;17.00;99.90;16.40;100552;;;;572665;246;24134;-78
2023/08/24 00:55:49;;;;;;;2.50;2.07;;;17.00;99.90;16.40;100546;;;;572750;247;24120;-77
2023/08/24 00:58:20;;;;;;;2.23;2.13;;;17.00;99.90;16.40;100551;;;;572621;247;24137;-78
2023/08/24 01:00:45;;;;;;;3.50;1.90;;;17.00;99.90;16.40;100547;;;;572716;247;24067;-77
2023/08/24 01:03:13;;;;;;;3.20;1.90;;;17.00;99.90;16.50;100536;;;;573176;247;24073;-78
2023/08/24 01:05:45;;;;;;;2.73;2.03;;;17.10;99.90;16.50;100533;;;;573207;247;24079;-77
2023/08/24 01:08:10;;;;;;;3.10;2.20;;;17.10;99.90;16.50;100536;;;;572765;247;24106;-79
2023/08/24 01:11:02;;;;;;;2.10;1.87;;;17.10;99.90;16.50;100545;;;;572743;246;24072;-79
2023/08/24 01:13:41;;;;;;;2.70;2.17;;;17.10;99.90;16.50;100537;;;;572456;247;24139;-77
2023/08/24 01:16:13;;;;;;;3.03;1.90;;;17.10;99.90;16.50;100531;;;;569654;247;26323;-78
2023/08/24 01:18:43;;;;;;;2.67;1.80;;;17.10;99.90;16.50;100535;;;;572689;247;24086;-78
2023/08/24 01:21:08;;;;;;;1.93;1.83;;;17.10;99.90;16.60;100534;;;;581279;247;24079;-77
2023/08/24 01:23:54;;;;;;;2.70;2.30;;;17.10;99.90;16.60;100535;;;;571163;250;24156;-78
2023/08/24 01:26:22;;;;;;;2.43;1.87;;;17.20;99.90;16.60;100532;;;;567944;247;24087;-79
2023/08/24 01:28:50;;;;;;;2.87;2.20;;;17.20;99.90;16.60;100534;;;;574169;246;24122;-77
2023/08/24 01:31:18;;;;;;;2.43;1.93;;;17.20;99.90;16.60;100537;;;;573944;246;24134;-80
2023/08/24 01:33:49;;;;;;;2.33;2.20;;;17.20;99.90;16.70;100531;;;;573560;246;24125;-78
2023/08/24 01:36:14;;;;;;;2.50;2.27;;;17.30;99.90;16.70;100535;;;;573682;246;24161;-78
2023/08/24 01:38:42;;;;;;;5.30;2.43;;;17.20;99.90;16.70;100537;;;;573696;246;24124;-78
2023/08/24 01:41:16;;;;;;;4.60;2.70;;;17.20;99.90;16.70;100539;;;;573717;246;24118;-79
2023/08/24 01:43:43;;;;;;;2.40;2.20;;;17.30;99.90;16.70;100534;;;;582348;245;24098;-80
2023/08/24 01:46:15;;;;;;;3.23;2.20;;;17.30;99.90;16.70;100536;;;;573445;243;24084;-82
2023/08/24 01:48:43;;;;;;;3.63;2.53;;;17.20;99.90;16.70;100538;;;;582239;245;24095;-77
2023/08/24 01:51:10;;;;;;;1.97;1.87;;;17.20;99.90;16.70;100547;;;;573446;247;24076;-79
2023/08/24 01:53:38;;;;;;;3.90;2.70;;;17.20;99.90;16.70;100548;;;;582301;245;24107;-78
2023/08/24 01:56:10;;;;;;;2.93;2.30;;;17.20;99.90;16.60;100545;;;;573543;247;24088;-77
2023/08/24 01:58:39;;;;;;;3.77;2.37;;;17.30;99.90;16.60;100546;;;;573195;247;24153;-77
2023/08/24 02:01:07;;;;;;;2.70;2.50;;;17.20;99.90;16.60;100545;;;;582263;242;24161;-77
2023/08/24 02:03:34;;;;;;;2.37;2.17;;;17.20;99.90;16.60;100549;;;;572997;247;24192;-78
2023/08/24 02:06:02;;;;;;;4.97;2.57;;;17.20;99.90;16.60;100548;;;;573285;247;24076;-78
2023/08/24 02:08:30;;;;;;;3.10;2.50;;;17.20;99.90;16.60;100541;;;;582207;245;24078;-77
2023/08/24 02:10:58;;;;;;;3.30;2.37;;;17.20;99.90;16.60;100547;;;;573195;247;24098;-77
2023/08/24 02:13:26;;;;;;;7.70;2.40;;;17.20;99.90;16.60;100543;;;;573594;247;24107;-78
2023/08/24 02:16:06;;;;;;;2.70;2.37;;;17.20;99.90;16.60;100543;;;;574008;246;24076;-77
2023/08/24 02:18:35;;;;;;;2.40;2.20;;;17.10;99.90;16.50;100546;;;;572997;247;24105;-78
2023/08/24 02:21:02;;;;;;;2.33;2.20;;;17.10;99.90;16.50;100555;;;;573175;247;24083;-78
2023/08/24 02:23:29;;;;;;;5.27;2.47;;;17.10;99.90;16.50;100546;;;;573176;247;24104;-77
2023/08/24 02:25:57;;;;;;;7.63;2.47;;;17.10;99.90;16.50;100550;;;;573134;247;24070;-80
2023/08/24 02:28:25;;;;;;;4.40;2.50;;;17.10;99.90;16.50;100549;;;;573213;242;24082;-78
2023/08/24 02:30:53;;;;;;;2.50;2.33;;;17.10;99.90;16.40;100544;;;;572764;247;24082;-77
2023/08/24 02:33:21;;;;;;;2.70;2.50;;;17.00;99.90;16.40;100547;;;;572686;247;24128;-77
2023/08/24 02:35:49;;;;;;;3.17;2.87;;;17.00;99.90;16.40;100543;;;;572821;247;24142;-77
2023/08/24 02:38:17;;;;;;;5.27;2.30;;;17.00;99.90;16.40;100549;;;;573210;245;24141;-76
2023/08/24 02:40:45;;;;;;;2.77;2.50;;;17.00;99.90;16.30;100547;;;;574613;246;24102;-77
2023/08/24 02:43:13;;;;;;;5.37;2.97;;;16.90;99.90;16.30;100555;;;;574170;246;24162;-80
2023/08/24 02:45:41;;;;;;;6.00;3.60;;;16.90;99.90;16.30;100547;;;;573854;246;24071;-78
2023/08/24 02:48:09;;;;;;;3.30;2.30;;;16.90;99.90;16.30;100551;;;;573783;246;24079;-80
2023/08/24 02:50:37;;;;;;;4.27;2.50;;;16.80;99.90;16.20;100551;;;;573652;246;24093;-78
2023/08/24 02:53:05;;;;;;;3.97;2.70;;;16.80;99.90;16.20;100550;;;;573708;246;24143;-79
2023/08/24 02:55:36;;;;;;;3.17;2.13;;;16.80;99.90;16.20;100544;;;;573726;246;24162;-80
2023/08/24 02:58:01;;;;;;;3.83;3.10;;;16.80;99.90;16.10;100548;;;;572991;246;24086;-81
2023/08/24 03:00:29;;;;;;;3.17;2.57;;;16.70;99.90;16.10;100544;;;;573098;247;24159;-79
2023/08/24 03:02:58;;;;;;;5.30;2.10;;;16.60;99.90;16.00;100542;;;;572924;247;24159;-77
2023/08/24 03:05:26;;;;;;;5.90;2.50;;;16.60;99.90;16.00;100540;;;;573064;246;24101;-76
2023/08/24 03:07:54;;;;;;;3.43;2.00;;;16.60;99.90;15.90;100538;;;;573377;247;24079;-80
2023/08/24 03:10:22;;;;;;;4.50;2.67;;;16.50;99.90;15.90;100546;;;;573425;247;24104;-79
2023/08/24 03:12:50;;;;;;;3.33;2.47;;;16.50;99.90;15.90;100540;;;;573351;246;24179;-81
2023/08/24 03:15:18;;;;;;;3.50;2.33;;;16.50;99.90;15.80;100541;;;;573227;247;24091;-79
2023/08/24 03:17:46;;;;;;;2.87;2.30;;;16.40;99.90;15.80;100540;;;;573163;247;24067;-80
2023/08/24 03:20:14;;;;;;;4.03;2.70;;;16.40;99.90;15.80;100544;;;;573175;247;24120;-79
2023/08/24 03:22:41;;;;;;;5.77;2.93;;;16.40;99.90;15.70;100536;;;;573162;246;24079;-77
2023/08/24 03:25:09;;;;;;;5.47;2.50;;;16.30;99.90;15.70;100540;;;;573199;247;24120;-78
2023/08/24 03:27:37;;;;;;;5.03;2.67;;;16.30;99.90;15.70;100552;;;;581986;242;24131;-78
2023/08/24 03:30:07;;;;;;;5.53;3.00;;;16.30;99.90;15.70;100550;;;;581892;245;26295;-78
2023/08/24 03:32:35;;;;;;;5.33;3.00;;;16.30;99.90;15.70;100544;;;;581534;245;24154;-77
2023/08/24 03:35:04;;;;;;;3.17;2.87;;;16.40;99.90;15.80;100549;;;;572811;247;24081;-80
2023/08/24 03:37:32;;;;;;;5.00;2.80;;;16.30;99.90;15.80;100539;;;;581569;245;24075;-78
2023/08/24 03:40:00;;;;;;;3.20;2.90;;;16.40;99.90;15.80;100539;;;;573278;247;24143;-80
2023/08/24 03:42:28;;;;;;;4.13;3.00;;;16.40;99.90;15.80;100539;;;;573226;246;24132;-78
2023/08/24 03:44:56;;;;;;;5.70;3.92;;;16.40;99.90;15.80;100536;;;;568252;247;35260;-80
2023/08/24 03:47:23;;;;;;;5.90;3.75;;;16.30;99.90;15.70;100539;;;;568269;247;35312;-78
2023/08/24 03:49:51;;;;;;;10.30;3.20;;;16.40;99.90;15.70;100538;;;;573330;245;24088;-77
2023/08/24 03:52:19;;;;;;;5.47;2.53;;;16.30;99.90;15.70;100544;;;;574937;246;24074;-78
2023/08/24 03:54:48;;;;;;;5.40;2.80;;;16.30;99.90;15.70;100542;;;;575406;245;24085;-78
2023/08/24 03:57:16;;;;;;;3.53;2.80;;;16.30;99.90;15.70;100539;;;;575245;243;24112;-78
2023/08/24 03:59:44;;;;;;;4.20;3.00;;;16.30;99.90;15.60;100534;;;;574763;246;24084;-78
2023/08/24 04:02:12;;;;;;;3.30;2.50;;;16.30;99.90;15.60;100530;;;;574360;246;24068;-79
2023/08/24 04:04:40;;;;;;;4.67;2.60;;;16.20;99.90;15.60;100546;;;;573836;246;24169;-80
2023/08/24 04:07:08;;;;;;;5.20;2.57;;;16.30;99.90;15.60;100533;;;;573524;246;24091;-81
2023/08/24 04:09:36;;;;;;;2.60;2.33;;;16.30;99.90;15.70;100539;;;;573931;246;24097;-77
2023/08/24 04:12:04;;;;;;;8.53;2.90;;;16.30;99.90;15.70;100534;;;;574390;247;24084;-81
2023/08/24 04:14:36;;;;;;;4.90;2.93;;;16.30;99.90;15.80;100535;;;;582358;245;24083;-81
2023/08/24 04:17:01;;;;;;;5.60;2.87;;;16.50;99.90;16.00;100536;;;;573344;247;24090;-82
2023/08/24 04:19:29;;;;;;;9.20;2.73;;;16.70;99.90;16.10;100546;;;;573565;246;24137;-85
2023/08/24 04:21:58;;;;;;;9.97;3.10;;;16.80;99.90;16.30;100541;;;;573471;246;24079;-84
2023/08/24 04:24:27;;;;;;;2.17;1.93;;;17.00;99.90;16.40;100543;;;;573503;242;24112;-83
2023/08/24 04:26:55;;;;;;;4.47;2.33;;;16.90;99.90;16.60;100544;;;;573496;246;24080;-82
2023/08/24 04:29:23;;;;;;;3.90;2.13;;;17.10;99.90;16.70;100541;;;;573443;247;24098;-79
2023/08/24 04:31:50;;;;;;;14.10;2.13;;;17.30;99.90;16.90;100542;;;;573610;246;24092;-77
2023/08/24 04:34:18;;;;;;;4.40;2.07;;;17.50;99.90;17.10;100535;;;;573157;247;24158;-77
2023/08/24 04:36:46;;;;;;;8.53;2.80;;;17.70;99.90;17.30;100541;;;;572717;246;24080;-79
2023/08/24 04:39:14;;;;;;;5.40;2.27;;;17.80;99.90;17.50;100545;;;;572851;247;24115;-78
2023/08/24 04:41:42;;;;;;;16.47;2.50;;;18.00;99.90;17.80;100548;;;;573158;247;24135;-78
2023/08/24 04:44:11;;;;;;;4.53;2.37;;;18.60;99.90;18.00;100546;;;;573192;247;24148;-82
2023/08/24 04:46:39;;;;;;;2.40;1.83;;;18.70;99.90;18.10;100543;;;;573138;247;24083;-78
2023/08/24 04:49:07;;;;;;;3.87;1.83;;;18.70;99.90;18.20;100549;;;;573171;247;23180;-78
2023/08/24 04:51:35;;;;;;;3.40;2.47;;;18.80;99.90;18.30;100537;;;;573214;246;24079;-78
2023/08/24 04:54:03;;;;;;;3.03;2.17;;;18.90;99.90;18.50;100542;;;;573180;246;23105;-78
2023/08/24 04:56:31;;;;;;;2.10;1.90;;;19.00;99.90;18.60;100542;;;;573712;247;24084;-77
2023/08/24 04:59:02;;;;;;;5.17;2.00;;;19.20;99.90;18.70;100541;;;;573896;246;24102;-78
2023/08/24 05:01:27;;;;;;;4.37;2.10;;;19.30;99.90;18.80;100547;;;;572670;245;24093;-79
2023/08/24 05:03:55;;;;;;;3.13;1.90;;;19.40;99.90;19.00;100544;;;;574455;246;24095;-80
2023/08/24 05:06:24;;;;;;;15.07;2.30;;;19.70;99.90;19.20;100543;;;;582818;245;23237;-78
2023/08/24 05:08:52;;;;;;;9.13;2.50;;;20.10;99.90;19.60;100554;;;;573947;246;24128;-78
2023/08/24 05:11:23;;;;;;;1.67;1.50;;;20.00;99.90;20.00;100546;;;;574684;246;23110;-81
2023/08/24 05:13:48;;;;;;;3.50;1.83;;;20.50;99.90;20.20;100546;;;;574744;246;24086;-79
2023/08/24 05:16:20;;;;;;;1.77;1.67;;;20.70;99.90;20.20;100546;;;;575107;246;23120;-76
2023/08/24 05:18:47;;;;;;;17.40;2.80;;;20.70;99.90;20.40;100554;;;;574746;246;24112;-77
2023/08/24 05:21:12;;;;;;;3.10;1.87;;;20.90;99.90;20.30;100553;;;;574160;247;24091;-78
2023/08/24 05:23:40;;;;;;;6.67;2.17;;;20.80;99.90;19.90;100550;;;;574346;247;24098;-78
2023/08/24 05:26:11;;;;;;;8.33;2.00;;;20.50;99.90;19.60;100553;;;;573633;247;24159;-78
2023/08/24 05:28:36;;;;;;;6.43;2.00;;;20.30;99.90;19.40;100551;;;;573290;245;24080;-78
2023/08/24 05:31:03;;;;;;;7.33;2.00;;;20.00;99.90;19.10;100553;;;;573552;246;24104;-77
2023/08/24 05:33:33;;;;;;;2.83;2.33;;;19.50;99.90;18.90;100553;;;;573518;247;24138;-78
2023/08/24 05:36:01;;;;;;;2.63;1.93;;;19.30;99.90;18.70;100557;;;;573210;247;24113;-77
2023/08/24 05:38:29;;;;;;;3.47;2.27;;;19.30;99.90;18.60;100560;;;;573070;246;23144;-78
2023/08/24 05:40:57;;;;;;;3.03;2.10;;;19.20;99.90;18.60;100559;;;;573275;247;24106;-83
2023/08/24 05:43:25;;;;;;;5.67;2.20;;;19.10;99.90;18.50;100558;;;;573199;247;24113;-79
2023/08/24 05:45:52;;;;;;;3.03;1.93;;;19.00;99.90;18.50;100562;;;;573209;247;24149;-78
2023/08/24 05:48:23;;;;;;;3.77;2.00;;;19.10;99.90;18.50;100568;;;;581846;247;24154;-77
2023/08/24 05:50:48;;;;;;;4.77;2.40;;;19.00;99.90;18.50;100567;;;;573015;247;24119;-78
2023/08/24 05:53:16;;;;;;;2.57;2.00;;;19.10;99.90;18.50;100559;;;;581700;244;24137;-78
2023/08/24 05:55:44;;;;;;;3.50;1.90;;;19.00;99.90;18.50;100557;;;;573197;247;24094;-77
2023/08/24 05:58:13;;;;;;;2.33;2.10;;;19.00;99.90;18.40;100559;;;;573147;247;24146;-77
2023/08/24 06:00:40;;;;;;;5.77;2.23;;;19.00;99.90;18.40;100563;;;;572733;247;24093;-78
2023/08/24 06:03:08;;;;;;;4.77;2.57;;;18.90;99.90;18.40;100561;;;;572940;247;24149;-78
2023/08/24 06:05:36;;;;;;;2.27;2.07;;;18.90;99.90;18.40;100565;;;;572976;247;24110;-80
2023/08/24 06:08:06;;;;;;;6.23;1.83;;;18.90;99.90;18.40;100562;;;;572785;247;24146;-79
2023/08/24 06:10:32;;;;;;;5.80;2.33;;;18.90;99.90;18.30;100561;;;;581780;242;24091;-79
2023/08/24 06:13:01;;;;;;;2.27;1.90;;;18.90;99.90;18.40;100553;;;;573392;245;24072;-80
2023/08/24 06:15:28;;;;;;;5.43;1.93;;;18.90;99.90;18.40;100559;;;;574714;245;23126;-78
2023/08/24 06:18:01;;;;;;;2.37;2.20;;;18.90;99.90;18.40;100561;;;;574234;246;24093;-78
2023/08/24 06:20:28;;;;;;;8.70;2.50;;;18.90;99.90;18.50;100552;;;;574059;242;23159;-80
2023/08/24 06:22:55;;;;;;;2.43;1.67;;;19.00;99.90;18.60;100549;;;;583927;241;23133;-78
2023/08/24 06:25:23;;;;;;;3.03;1.90;;;19.10;99.90;18.80;100550;;;;573802;246;24112;-77
2023/08/24 06:27:51;;;;;;;2.23;1.90;;;19.30;99.90;19.00;100554;;;;573914;246;23147;-78
2023/08/24 06:30:19;;;;;;;2.03;1.53;;;19.50;99.90;19.20;100554;;;;582508;246;24174;-79
2023/08/24 06:32:47;;;;;;;7.57;1.80;;;19.70;99.90;19.20;100554;;;;582400;242;24096;-80
2023/08/24 06:35:15;;;;;;;6.23;1.87;;;19.70;99.90;19.30;100550;;;;573571;247;24130;-80
2023/08/24 06:37:43;;;;;;;4.57;1.93;;;19.80;99.90;19.30;100553;;;;573133;246;24103;-80
2023/08/24 06:40:14;;;;;;;2.17;1.87;;;19.80;99.90;19.20;100555;;;;572890;246;25158;-79
2023/08/24 06:42:39;;;;;;;3.30;2.00;;;19.80;99.90;19.20;100557;;;;581815;246;24120;-80
2023/08/24 06:45:07;;;;;;;1.90;1.80;;;19.80;99.90;19.20;100558;;;;573448;247;23093;-79
2023/08/24 06:47:35;;;;;;;1.77;1.60;;;19.80;99.90;19.30;100562;;;;582210;242;24117;-78
2023/08/24 06:50:06;;;;;;;5.90;2.50;;;19.80;99.90;19.30;100558;;;;573278;247;24099;-78
2023/08/24 06:52:31;;;;;;;3.43;1.90;;;19.80;99.90;19.40;100554;;;;572800;246;23130;-77
2023/08/24 06:54:59;;;;;;;2.97;1.70;;;19.90;99.90;19.40;100560;;;;573135;247;24099;-78
2023/08/24 06:57:30;;;;;;;12.17;1.97;;;20.00;99.90;19.50;100555;;;;581893;243;23098;-76
2023/08/24 06:59:54;;;;;;;13.03;2.37;;;20.00;99.90;19.50;100558;;;;583690;242;24063;-77
2023/08/24 07:02:25;;;;;;;6.33;2.43;;;20.00;99.90;19.60;100556;;;;578014;242;24150;-77
2023/08/24 07:04:50;;;;;;;17.17;2.80;;;20.10;99.90;19.70;100555;;;;581239;242;23101;-77
2023/08/24 07:07:19;;;;;;;15.27;2.30;;;20.20;99.90;19.80;100557;;;;584948;240;23040;-79
2023/08/24 07:09:47;;;;;;;2.40;1.60;;;20.50;99.90;20.00;100557;;;;585672;240;24098;-77
2023/08/24 07:12:15;;;;;;;6.83;2.03;;;20.70;99.90;20.20;100559;;;;586203;240;24060;-76
2023/08/24 07:14:47;;;;;;;5.13;1.83;;;20.90;99.90;20.40;100562;;;;585963;240;24031;-77
2023/08/24 07:17:12;;;;;;;1.77;1.50;;;20.90;99.90;20.60;100568;;;;589442;240;23050;-76
2023/08/24 07:19:40;;;;;;;1.50;1.40;;;21.10;99.90;20.80;100572;;;;586009;238;24025;-77
2023/08/24 07:22:08;;;;;;;2.00;1.60;;;21.30;99.90;21.20;100570;;;;585997;240;24032;-76
2023/08/24 07:24:36;;;;;;;6.67;1.90;;;21.60;99.90;21.90;100574;;;;586032;238;24056;-77
2023/08/24 07:27:04;;;;;;;16.00;3.30;;;23.40;99.90;23.10;100575;;;;587474;237;24096;-76
2023/08/24 07:29:32;;;;;;;29.40;4.80;;;23.30;99.90;24.00;100577;;;;586981;240;23059;-76
2023/08/24 07:32:00;;;;;;;17.50;2.40;;;24.30;99.90;24.50;100588;;;;586780;240;24020;-78
2023/08/24 07:34:29;;;;;;;11.13;1.80;;;25.00;99.90;24.80;100588;;;;590275;240;23045;-77
2023/08/24 07:36:56;;;;;;;6.43;1.80;;;25.30;99.90;24.90;100586;;;;586486;240;23086;-76
2023/08/24 07:39:24;;;;;;;7.73;1.77;;;25.50;99.90;25.30;100587;;;;586098;240;23073;-77
2023/08/24 07:41:52;;;;;;;1.60;1.27;;;25.80;99.90;26.10;100589;;;;590193;240;24128;-79
2023/08/24 07:44:20;;;;;;;1.33;1.23;;;26.50;99.90;27.70;100595;;;;586292;238;23106;-79
2023/08/24 07:46:48;;;;;;;12.65;1.50;;;27.90;99.90;28.90;100591;;;;586093;240;23172;-78
2023/08/24 07:49:16;;;;;;;10.57;1.40;;;29.20;99.90;29.20;100593;;;;589773;240;23070;-76
2023/08/24 07:51:44;;;;;;;5.50;1.65;;;29.70;99.90;28.80;100598;;;;584780;242;23014;-76
2023/08/24 07:54:12;;;;;;;7.35;2.10;;;29.50;99.90;28.40;100607;;;;584865;242;23089;-75
2023/08/24 07:56:39;;;;;;;3.72;1.37;;;29.10;99.90;28.10;100611;;;;584724;242;23029;-76
2023/08/24 07:59:07;;;;;;;11.45;2.75;;;28.80;99.90;27.80;100611;;;;584301;242;23189;-76
2023/08/24 08:01:36;;;;;;;3.72;1.10;;;28.10;99.90;27.50;100611;;;;584228;242;23045;-77
2023/08/24 08:04:04;;;;;;;3.95;1.77;;;28.10;99.90;27.20;100615;;;;583947;242;23030;-75
2023/08/24 08:06:32;;;;;;;2.00;1.20;;;27.80;99.90;27.00;100616;;;;589181;240;24044;-75
2023/08/24 08:09:00;;;;;;;5.10;1.77;;;27.60;99.90;26.90;100616;;;;584124;242;23088;-76
2023/08/24 08:11:28;;;;;;;19.30;2.63;;;27.50;99.90;26.80;100620;;;;584528;242;23076;-76
2023/08/24 08:13:58;;;;;;;5.93;1.98;;;27.30;99.90;26.70;100615;;;;584540;242;23084;-77
2023/08/24 08:16:24;;;;;;;4.30;1.63;;;27.20;99.90;26.60;100628;;;;584346;242;23110;-76
2023/08/24 08:18:52;;;;;;;12.18;1.85;;;27.10;99.90;27.90;100624;;;;584736;242;24044;-78
2023/08/24 08:21:20;;;;;;;3.12;1.55;;;29.40;99.90;29.40;100624;;;;584543;242;23046;-79
2023/08/24 08:23:52;;;;;;;14.20;1.83;;;30.30;98.00;30.00;100627;;;;584750;242;24058;-76
2023/08/24 08:26:18;;;;;;;1.20;1.10;;;30.90;96.00;30.60;100631;;;;584337;242;23119;-79
2023/08/24 08:28:49;;;;;;;2.85;1.30;;;30.80;96.00;30.50;100622;;;;584742;241;23056;-78
2023/08/24 08:31:13;;;;;;;6.78;1.92;;;30.90;94.60;29.90;100623;;;;584482;242;23033;-82
2023/08/24 08:33:41;;;;;;;19.25;1.92;;;30.60;93.40;29.50;100624;;;;584765;242;23092;-81
2023/08/24 08:36:09;;;;;;;3.25;1.55;;;30.00;93.90;29.30;100623;;;;584702;240;23064;-84
2023/08/24 08:38:37;;;;;;;4.80;1.37;;;29.70;93.60;30.80;100629;;;;586180;242;23145;-77
2023/08/24 08:41:09;;;;;;;2.67;1.20;;;30.80;92.80;32.60;100626;;;;585292;242;23052;-79
2023/08/24 08:43:33;;;;;;;5.55;0.85;;;32.60;87.70;34.00;100628;;;;583144;242;24065;-75
2023/08/24 08:46:01;;;;;;;19.98;2.17;;;34.00;81.20;35.90;100625;;;;585302;242;23034;-84
2023/08/24 08:48:29;;;;;;;6.12;1.60;;;35.80;75.60;38.20;100630;;;;585040;242;23064;-82
2023/08/24 08:50:57;;;;;;;1.60;1.17;;;38.10;67.00;39.80;100632;;;;585037;242;23033;-82
2023/08/24 08:53:25;;;;;;;5.22;1.87;;;39.90;59.90;40.70;100635;;;;594167;236;23103;-79
2023/08/24 08:55:53;;;;;;;9.80;1.58;;;41.30;55.10;40.50;100639;;;;584762;242;23045;-76
2023/08/24 08:58:22;;;;;;;4.55;2.35;;;41.60;52.10;40.60;100637;;;;584341;242;23100;-77
2023/08/24 09:00:50;;;;;;;2.92;1.48;;;41.50;52.00;39.90;100643;;;;584420;242;23054;-77
2023/08/24 09:03:18;;;;;;;2.33;1.10;;;41.00;51.80;40.10;100654;;;;584290;242;24096;-80
2023/08/24 09:05:49;;;;;;;1.08;1.08;;;41.10;51.10;38.50;100649;;;;593353;242;23038;-76
2023/08/24 09:08:14;;;;;;;2.10;0.98;;;40.00;50.80;37.40;100650;;;;584090;242;23050;-78
2023/08/24 09:10:42;;;;;;;5.72;1.50;;;38.70;51.70;37.40;100651;;;;584680;242;23022;-77
2023/08/24 09:13:13;;;;;;;11.45;2.60;;;38.30;53.30;37.30;100648;;;;584264;242;23085;-77
2023/08/24 09:15:40;;;;;;;9.85;1.83;;;38.00;53.90;38.70;100646;;;;583780;242;23103;-80
2023/08/24 09:18:09;;;;;;;4.10;1.25;;;39.00;53.00;40.00;100640;;;;584031;241;23053;-78
2023/08/24 09:20:36;;;;;;;5.50;1.70;;;40.30;51.80;41.50;100637;;;;583763;242;23021;-77
2023/08/24 09:23:01;;;;;;;2.95;1.30;;;41.80;50.70;42.90;100642;;;;593010;242;23034;-77
2023/08/24 09:25:29;;;;;;;14.85;3.37;;;43.40;47.90;44.00;100641;;;;581962;242;24073;-76
2023/08/24 09:28:00;;;;;;;11.80;2.37;;;44.70;45.40;44.90;100632;;;;584238;242;23076;-76
2023/08/24 09:30:34;;;;;;;3.05;1.27;;;45.70;43.70;44.80;100635;;;;583437;242;23034;-79
2023/08/24 09:33:04;;;;;;;3.12;1.23;;;46.10;42.90;43.90;100636;;;;592632;242;26299;-77
2023/08/24 09:35:36;;;;;;;4.30;1.70;;;45.60;42.90;43.60;100639;;;;583869;242;23095;-79
2023/08/24 09:38:21;;;;;;;7.35;1.52;;;45.10;43.60;43.30;100642;;;;583867;242;23086;-77
2023/08/24 09:40:51;;;;;;;4.32;1.45;;;44.70;43.50;44.00;100632;;;;583679;242;23075;-77
2023/08/24 09:43:20;;;;;;;12.37;2.33;;;45.80;42.70;44.90;100631;;;;584449;242;23157;-76
2023/08/24 09:45:55;;;;;;;5.97;1.52;;;46.70;42.60;45.80;100627;;;;584318;242;23152;-77
2023/08/24 09:48:23;;;;;;;8.70;1.67;;;46.70;41.90;46.50;100629;;;;584974;241;23020;-78
2023/08/24 09:50:51;;;;;;;2.10;1.30;;;47.70;41.00;47.00;100629;;;;590659;242;23094;-78
2023/08/24 09:53:26;;;;;;;23.65;3.37;;;48.40;40.40;47.90;100631;;;;585485;242;24147;-77
2023/08/24 09:56:01;;;;;;;4.20;1.87;;;49.20;38.80;46.00;100635;;;;593962;241;23041;-78
2023/08/24 09:58:32;;;;;;;5.30;1.35;;;48.50;38.90;43.80;100643;;;;584822;242;23079;-79
2023/08/24 10:01:01;;;;;;;5.68;1.40;;;46.50;40.20;41.50;100643;;;;584394;242;23036;-80
2023/08/24 10:03:28;;;;;;;1.50;1.10;;;44.00;41.30;39.40;100643;;;;593238;242;23076;-80
2023/08/24 10:06:00;;;;;;;1.52;1.23;;;41.50;43.50;38.00;100638;;;;589602;242;23036;-79
2023/08/24 10:08:30;;;;;;;5.50;1.55;;;39.40;45.90;37.30;100629;;;;583685;241;23085;-77
2023/08/24 10:11:00;;;;;;;3.10;1.67;;;38.30;47.80;36.80;100617;;;;562652;251;23134;-82
2023/08/24 10:13:51;;;;;;;7.93;1.60;;;36.90;49.70;36.20;100627;;;;562595;251;24159;-77
2023/08/24 10:16:19;;;;;;;2.47;1.10;;;36.80;49.60;35.30;100616;;;;580363;242;23115;-80
2023/08/24 10:18:51;;;;;;;3.00;1.30;;;36.00;51.10;34.80;100613;;;;576126;240;23105;-77
2023/08/24 10:21:15;;;;;;;6.22;1.40;;;35.30;52.30;34.30;100604;;;;593800;241;23146;-75
2023/08/24 10:23:43;;;;;;;1.73;1.33;;;34.80;53.00;34.20;100607;;;;585130;242;23067;-76
2023/08/24 10:26:11;;;;;;;8.23;1.50;;;34.60;54.20;34.20;100599;;;;585124;242;23207;-82
2023/08/24 10:28:41;;;;;;;9.45;1.65;;;34.50;55.00;34.10;100586;;;;585061;242;23073;-84
2023/08/24 10:31:07;;;;;;;17.40;2.25;;;34.40;54.50;33.80;100591;;;;593850;242;23125;-79
2023/08/24 10:33:38;;;;;;;9.63;2.17;;;34.20;54.50;33.20;100588;;;;585382;242;23105;-78
2023/08/24 10:36:02;;;;;;;3.17;1.62;;;33.70;54.90;32.30;100581;;;;584936;242;24073;-85
2023/08/24 10:38:30;;;;;;;17.70;2.60;;;33.00;55.30;32.00;100582;;;;585083;242;23111;-82
2023/08/24 10:41:05;;;;;;;1.45;1.30;;;32.10;56.70;31.60;100591;;;;593768;238;23067;-76
2023/08/24 10:43:41;;;;;;;20.73;3.05;;;32.00;56.60;31.00;100591;;;;585543;242;24119;-77
2023/08/24 10:46:15;;;;;;;1.75;1.65;;;31.50;57.30;30.80;100577;;;;585934;242;23082;-78
2023/08/24 10:48:44;;;;;;;2.08;1.80;;;31.20;58.50;30.40;100572;;;;585386;242;24148;-78
2023/08/24 10:51:25;;;;;;;17.80;3.08;;;30.80;57.90;30.20;100575;;;;585357;242;23081;-76
2023/08/24 10:53:54;;;;;;;11.63;2.80;;;30.50;58.10;30.10;100572;;;;594430;242;23110;-76
2023/08/24 10:56:22;;;;;;;37.05;3.67;;;30.50;59.20;29.90;100568;;;;585473;242;23061;-77
2023/08/24 10:58:50;;;;;;;2.95;2.17;;;30.30;59.50;29.70;100568;;;;593929;237;23114;-75
2023/08/24 11:01:18;;;;;;;16.20;2.58;;;30.00;60.10;29.50;100574;;;;584245;241;23086;-77
2023/08/24 11:03:52;;;;;;;14.23;2.95;;;29.80;60.90;29.20;100571;;;;594748;240;23077;-78
2023/08/24 11:06:20;;;;;;;8.80;2.35;;;29.50;61.60;28.80;100574;;;;585592;241;23080;-79
2023/08/24 11:08:48;;;;;;;3.28;2.70;;;29.10;61.90;28.40;100573;;;;585102;242;24090;-78
2023/08/24 11:11:25;;;;;;;2.47;2.28;;;28.80;62.20;28.10;100571;;;;585575;242;23072;-77
2023/08/24 11:14:19;;;;;;;2.25;2.17;;;28.50;62.80;28.00;100566;;;;585295;242;23111;-79
2023/08/24 11:16:48;;;;;;;2.10;2.00;;;28.30;63.70;27.80;100564;;;;594897;241;23079;-83